Main page
METAR-TAF:

METAR-TAF

Airports :

Gibraltar, Gibraltar

Gibraltar International Airport

latitude: 36-09N, longitude: 005-21W, elevation: 5 m

Current weather observation

The report was made 32 minutes ago, at 04:50 UTC
Wind 12 kt from the East
Temperature 15°C
Humidity 88%
Pressure 1026 hPa
Visibility 10 km or more
Scattered clouds at a height of 900 ft
Broken clouds at a height of 1500 ft

METAR: LXGB 290450Z 08012KT 9999 SCT009 BKN015 15/13 Q1026

Time: 07:22 (05:22 UTC)

Forecast

The report was made 13 hours and 16 minutes ago, at 16:06 UTC
Forecast valid from 28 at 18 UTC to 28 at 22 UTC
Wind 7 kt from the East/Northeast
Visibility 10 km or more
Few clouds at a height of 4000 ft

TAF: LXGB 281606Z 2818/2822 07007KT 9999 FEW040

Weather observations and forecasts of more than 4000 airports (METAR and TAF reports).

The available stations are represented by yellow and red dots on the map.

Hover mouse over dot to see the name of the station.

Then click to see weather observations and forecasts.

To change the map : click on the green buttons with a black cross to zoom in, on the green button with a dash to zoom out, or on the green arrows for adjacent maps.


METAR-TAF: